Time;durP1;ratioP1;P1;durP2;ratioP2;P2;SDS_P1;SDS_P2;PMS_P1;PMS_P2;Temp;Humidity;BMP_temperature;BMP_pressure;BME280_temperature;BME280_humidity;BME280_pressure;Samples;Min_cycle;Max_cycle;Signal;HPM_P1;HPM_P2
2023/05/04 00:01:10;;;;;;;16.43;10.33;;;;;;;6.92;90.10;98508.81;6075295;29;20251;-46
2023/05/04 00:04:12;;;;;;;12.33;10.03;;;;;;;6.94;90.30;98507.59;6074991;29;20239;-45
2023/05/04 00:07:15;;;;;;;11.17;9.73;;;;;;;6.95;90.08;98501.28;6075372;29;20239;-48
2023/05/04 00:10:17;;;;;;;11.77;10.27;;;;;;;7.00;90.42;98510.50;6072018;29;20250;-46
2023/05/04 00:13:19;;;;;;;11.40;10.03;;;;;;;7.01;90.38;98501.53;6076203;29;20243;-46
2023/05/04 00:16:21;;;;;;;12.10;9.57;;;;;;;7.02;90.61;98505.78;6073380;29;20240;-47
2023/05/04 00:19:23;;;;;;;11.30;10.07;;;;;;;7.03;90.54;98499.47;6074037;29;20247;-46
2023/05/04 00:22:25;;;;;;;10.97;9.40;;;;;;;6.89;90.14;98483.53;6073657;29;20611;-46
2023/05/04 00:25:28;;;;;;;11.33;9.67;;;;;;;6.96;90.20;98494.97;6074576;29;20247;-44
2023/05/04 00:28:30;;;;;;;10.47;8.63;;;;;;;6.95;90.45;98488.06;6074241;29;20330;-44
2023/05/04 00:31:32;;;;;;;10.13;9.10;;;;;;;6.94;90.76;98493.53;6057343;29;20228;-45
2023/05/04 00:34:34;;;;;;;12.73;9.90;;;;;;;6.90;90.69;98490.47;6055250;29;20969;-43
2023/05/04 00:37:36;;;;;;;10.40;9.07;;;;;;;6.84;90.73;98487.78;6073752;29;20623;-44
2023/05/04 00:40:41;;;;;;;8.87;7.93;;;;;;;6.80;90.55;98489.19;6074465;29;20255;-44
2023/05/04 00:43:45;;;;;;;12.57;9.30;;;;;;;6.65;90.67;98479.59;6073368;29;20592;-44
2023/05/04 00:46:50;;;;;;;11.17;9.00;;;;;;;6.71;90.62;98486.72;6073898;29;20726;-44
2023/05/04 00:49:52;;;;;;;11.83;8.23;;;;;;;6.68;90.49;98486.31;6073908;29;20236;-44
2023/05/04 00:52:57;;;;;;;10.47;8.30;;;;;;;6.61;90.66;98480.97;6071737;29;20240;-44
2023/05/04 00:56:00;;;;;;;9.33;7.97;;;;;;;6.55;90.68;98476.47;6072842;29;20230;-44
2023/05/04 00:59:04;;;;;;;9.83;8.37;;;;;;;6.48;90.57;98483.56;6056079;29;20232;-44
2023/05/04 01:02:06;;;;;;;11.10;8.40;;;;;;;6.45;90.60;98481.28;6073514;29;20239;-43
2023/05/04 01:05:11;;;;;;;8.80;7.90;;;;;;;6.44;90.64;98479.66;6055022;29;20237;-46
2023/05/04 01:08:17;;;;;;;8.87;7.57;;;;;;;6.40;90.45;98481.06;6075749;29;20298;-44
2023/05/04 01:11:25;;;;;;;13.17;8.57;;;;;;;6.35;90.66;98480.81;6072780;29;20239;-43
2023/05/04 01:14:29;;;;;;;9.10;8.20;;;;;;;6.30;90.59;98480.59;6062887;29;20240;-43
2023/05/04 01:17:31;;;;;;;8.20;7.40;;;;;;;6.11;90.41;98458.31;6059722;29;20329;-44
2023/05/04 01:20:34;;;;;;;12.20;9.67;;;;;;;6.17;90.64;98474.22;6073749;29;20230;-43
2023/05/04 01:23:36;;;;;;;11.47;8.57;;;;;;;6.01;90.45;98463.94;6061785;29;20330;-44
2023/05/04 01:26:42;;;;;;;9.30;7.90;;;;;;;6.03;90.30;98475.16;6061236;29;20270;-44
2023/05/04 01:30:04;;;;;;;11.50;8.70;;;;;;;5.99;90.39;98470.44;6069871;29;20522;-44
2023/05/04 01:33:07;;;;;;;9.70;8.63;;;;;;;5.92;90.55;98465.91;6060635;29;20266;-44
2023/05/04 01:36:11;;;;;;;9.93;8.47;;;;;;;5.94;90.44;98476.28;6075717;29;20684;-43
2023/05/04 01:39:13;;;;;;;10.27;8.00;;;;;;;5.86;90.28;98474.59;6073857;29;20252;-44
2023/05/04 01:42:15;;;;;;;10.30;7.80;;;;;;;5.79;90.31;98476.34;6049357;29;20211;-45
2023/05/04 01:45:17;;;;;;;9.17;8.20;;;;;;;5.73;90.51;98473.66;6072797;29;20225;-44
2023/05/04 01:48:19;;;;;;;8.57;7.60;;;;;;;5.68;90.22;98476.88;6063946;29;20209;-44
2023/05/04 01:51:21;;;;;;;11.90;9.37;;;;;;;5.57;90.17;98472.13;6071870;29;20240;-44
2023/05/04 01:54:24;;;;;;;11.63;8.77;;;;;;;5.50;90.12;98476.50;6060266;29;20591;-45
2023/05/04 01:57:26;;;;;;;17.07;9.13;;;;;;;5.49;90.28;98467.75;6054314;29;20265;-44
2023/05/04 02:00:28;;;;;;;12.57;8.63;;;;;;;5.45;90.20;98466.50;6054724;29;20241;-43
2023/05/04 02:03:34;;;;;;;10.03;8.67;;;;;;;5.39;90.17;98467.28;6073372;29;20242;-43
2023/05/04 02:06:36;;;;;;;9.17;8.17;;;;;;;5.34;90.17;98469.66;6056462;29;20269;-45
2023/05/04 02:09:38;;;;;;;9.80;8.40;;;;;;;5.30;90.09;98466.56;6054078;29;20242;-44
2023/05/04 02:12:41;;;;;;;11.00;8.50;;;;;;;5.25;90.22;98462.84;6074148;29;20281;-43
2023/05/04 02:15:44;;;;;;;11.57;8.47;;;;;;;5.20;90.12;98462.59;6054907;29;20243;-45
2023/05/04 02:18:46;;;;;;;8.60;7.67;;;;;;;5.25;90.40;98473.44;6062624;29;20241;-45
2023/05/04 02:21:51;;;;;;;9.00;7.37;;;;;;;5.26;90.38;98473.22;6076069;29;20288;-44
2023/05/04 02:24:55;;;;;;;10.17;7.30;;;;;;;5.24;90.14;98477.06;6074413;29;20250;-44
2023/05/04 02:27:57;;;;;;;10.30;7.57;;;;;;;5.22;90.11;98469.34;6077363;29;20328;-45
2023/05/04 02:30:59;;;;;;;11.13;8.20;;;;;;;5.18;90.09;98466.25;6076949;29;20235;-43
2023/05/04 02:34:01;;;;;;;9.13;7.90;;;;;;;5.16;89.97;98470.91;6060025;29;20248;-44
2023/05/04 02:37:04;;;;;;;8.80;7.70;;;;;;;5.13;89.90;98462.56;6075848;29;20235;-43
2023/05/04 02:40:09;;;;;;;10.00;8.13;;;;;;;5.13;90.10;98479.22;6077740;29;20297;-43
2023/05/04 02:43:11;;;;;;;11.23;8.23;;;;;;;5.08;90.11;98473.66;6076737;29;20243;-44
2023/05/04 02:46:14;;;;;;;9.47;7.47;;;;;;;4.79;90.02;98426.25;6075544;29;20247;-44
2023/05/04 02:49:16;;;;;;;9.60;8.60;;;;;;;5.00;89.97;98472.97;6076508;29;20250;-44
2023/05/04 02:52:18;;;;;;;10.60;8.67;;;;;;;4.94;90.13;98461.31;6059593;29;20243;-43
2023/05/04 02:55:20;;;;;;;11.27;8.33;;;;;;;4.88;90.03;98470.00;6076284;29;20371;-45
2023/05/04 02:58:22;;;;;;;8.83;7.87;;;;;;;4.82;90.07;98468.91;6062017;29;20242;-43
2023/05/04 03:01:24;;;;;;;10.20;7.67;;;;;;;4.81;90.09;98466.44;6046985;29;20241;-45
2023/05/04 03:04:26;;;;;;;9.37;7.20;;;;;;;4.77;90.07;98470.47;6062750;29;20254;-44
2023/05/04 03:07:29;;;;;;;9.53;8.37;;;;;;;4.73;89.98;98464.75;6069324;29;20278;-45
2023/05/04 03:10:31;;;;;;;11.57;8.23;;;;;;;4.69;90.15;98465.31;6056443;29;20633;-44
2023/05/04 03:13:33;;;;;;;10.40;9.27;;;;;;;4.65;90.11;98465.66;6065633;29;20226;-45
2023/05/04 03:16:36;;;;;;;9.83;8.67;;;;;;;4.62;90.07;98457.28;6058026;29;20385;-45
2023/05/04 03:19:38;;;;;;;13.30;9.37;;;;;;;4.60;90.20;98460.13;6058382;29;20244;-43
2023/05/04 03:22:40;;;;;;;10.53;8.97;;;;;;;4.56;90.15;98448.28;6073437;29;20249;-45
2023/05/04 03:25:43;;;;;;;10.93;7.93;;;;;;;4.52;90.14;98454.94;6063849;29;20291;-44
2023/05/04 03:28:45;;;;;;;11.73;8.23;;;;;;;4.50;90.25;98458.78;6064381;29;20233;-43
2023/05/04 03:31:47;;;;;;;8.93;7.60;;;;;;;4.47;90.24;98462.59;6066199;29;20241;-43
2023/05/04 03:34:51;;;;;;;11.10;8.77;;;;;;;4.47;90.23;98462.59;6075089;29;20745;-45
2023/05/04 03:37:55;;;;;;;13.43;7.70;;;;;;;4.45;90.30;98463.78;6057868;29;20264;-44
2023/05/04 03:40:57;;;;;;;14.10;8.80;;;;;;;4.44;90.25;98460.31;6075497;29;20329;-49
2023/05/04 03:43:59;;;;;;;11.93;8.87;;;;;;;4.41;90.15;98458.03;6067003;29;20732;-45
2023/05/04 03:47:01;;;;;;;13.07;8.93;;;;;;;4.34;90.21;98468.53;6059264;29;20232;-44
2023/05/04 03:50:04;;;;;;;9.20;8.17;;;;;;;4.32;90.34;98473.13;6057418;29;20233;-43
2023/05/04 03:53:06;;;;;;;10.67;8.10;;;;;;;4.27;90.34;98464.97;6074438;29;20395;-43
2023/05/04 03:56:08;;;;;;;12.27;9.13;;;;;;;4.26;90.13;98465.16;6056832;29;20252;-45
2023/05/04 03:59:11;;;;;;;12.83;9.27;;;;;;;4.21;90.23;98470.16;6058735;29;20244;-44
2023/05/04 04:02:13;;;;;;;10.87;8.47;;;;;;;4.11;89.94;98459.88;6058103;29;20235;-47
2023/05/04 04:05:15;;;;;;;8.90;8.00;;;;;;;4.14;90.37;98470.88;6074412;29;20663;-45
2023/05/04 04:08:17;;;;;;;9.93;8.57;;;;;;;4.14;90.31;98470.88;6060953;29;20236;-44
2023/05/04 04:11:19;;;;;;;10.97;8.00;;;;;;;4.13;90.41;98474.50;6059514;29;20567;-44
2023/05/04 04:14:22;;;;;;;9.87;7.93;;;;;;;4.09;90.26;98467.16;6075407;29;20789;-46
2023/05/04 04:17:24;;;;;;;11.17;9.97;;;;;;;4.10;90.40;98474.88;6071638;29;20239;-45
2023/05/04 04:20:26;;;;;;;12.00;9.17;;;;;;;4.08;90.37;98471.59;6074084;29;20611;-44
2023/05/04 04:23:28;;;;;;;9.93;8.73;;;;;;;4.05;90.46;98474.59;6075403;29;20252;-44
2023/05/04 04:26:31;;;;;;;8.93;8.00;;;;;;;4.04;90.52;98480.88;6057693;29;20322;-44
2023/05/04 04:29:34;;;;;;;8.67;7.70;;;;;;;4.04;90.41;98469.47;6076309;29;20233;-44
2023/05/04 04:32:36;;;;;;;11.80;8.83;;;;;;;4.06;90.51;98472.78;6071988;29;20258;-43
2023/05/04 04:35:38;;;;;;;10.30;8.27;;;;;;;4.06;90.44;98470.13;6073873;29;20238;-46
2023/05/04 04:38:40;;;;;;;9.80;8.13;;;;;;;4.04;90.41;98472.13;6073259;29;20621;-44
2023/05/04 04:41:42;;;;;;;15.87;9.13;;;;;;;4.02;90.34;98472.31;6073360;29;20232;-43
2023/05/04 04:44:44;;;;;;;9.37;7.70;;;;;;;4.02;90.50;98472.31;6073695;29;20618;-45
2023/05/04 04:47:46;;;;;;;8.20;7.30;;;;;;;4.05;90.65;98476.41;6072676;29;20262;-44
2023/05/04 04:50:48;;;;;;;11.50;8.80;;;;;;;4.06;90.63;98468.31;6075680;29;20234;-47
2023/05/04 04:53:51;;;;;;;11.90;8.40;;;;;;;3.95;90.65;98444.22;6073567;29;20654;-44
2023/05/04 04:56:53;;;;;;;17.97;10.97;;;;;;;4.28;91.72;98476.31;6072297;29;20225;-43
2023/05/04 04:59:56;;;;;;;17.17;9.97;;;;;;;4.46;91.96;98482.06;6072649;29;20232;-45
2023/05/04 05:02:58;;;;;;;15.47;10.90;;;;;;;4.73;92.07;98480.59;6073130;29;20603;-46
2023/05/04 05:06:01;;;;;;;16.13;11.23;;;;;;;4.94;91.14;98440.22;6073012;29;20473;-44
2023/05/04 05:09:03;;;;;;;12.57;9.20;;;;;;;5.21;90.95;98478.25;6070718;29;20241;-45
2023/05/04 05:12:05;;;;;;;10.87;8.90;;;;;;;5.34;90.60;98483.69;6075973;29;20255;-47
2023/05/04 05:15:08;;;;;;;15.37;8.63;;;;;;;5.38;90.88;98482.31;6074316;29;20316;-43
2023/05/04 05:18:10;;;;;;;17.10;9.63;;;;;;;5.55;90.17;98479.41;6072798;29;20218;-49
2023/05/04 05:21:13;;;;;;;12.47;9.13;;;;;;;5.75;88.95;98490.13;6072840;29;20252;-44
2023/05/04 05:24:16;;;;;;;16.50;8.50;;;;;;;6.16;86.25;98490.31;6073034;29;20258;-44
2023/05/04 05:27:18;;;;;;;13.87;8.37;;;;;;;6.26;86.26;98489.97;6073111;29;20300;-48
2023/05/04 05:30:20;;;;;;;11.40;8.33;;;;;;;6.34;84.69;98487.94;6055254;29;20723;-47
2023/05/04 05:33:22;;;;;;;11.63;8.07;;;;;;;6.82;81.72;98488.00;6071865;29;20246;-49
2023/05/04 05:36:24;;;;;;;13.13;7.03;;;;;;;6.88;81.78;98487.19;6072943;29;20242;-48
2023/05/04 05:39:27;;;;;;;10.10;7.13;;;;;;;6.91;81.02;98489.47;6072107;29;20288;-49
2023/05/04 05:42:29;;;;;;;9.23;6.93;;;;;;;7.20;78.84;98493.63;6056029;29;20718;-44
2023/05/04 05:45:31;;;;;;;12.67;6.87;;;;;;;7.60;74.84;98483.09;6072644;29;20728;-43
2023/05/04 05:48:34;;;;;;;9.47;7.10;;;;;;;7.98;72.28;98493.91;6072927;29;20231;-44
2023/05/04 05:51:36;;;;;;;9.57;6.70;;;;;;;8.03;72.44;98490.66;6074937;29;20226;-44
2023/05/04 05:54:38;;;;;;;10.97;6.83;;;;;;;8.13;71.81;98479.63;6060398;29;20242;-44
2023/05/04 05:57:40;;;;;;;9.50;6.40;;;;;;;8.17;71.62;98478.97;6077853;29;20232;-45
2023/05/04 06:00:42;;;;;;;9.73;6.90;;;;;;;8.18;71.77;98479.81;6077733;29;20242;-44
2023/05/04 06:03:44;;;;;;;8.63;5.77;;;;;;;8.36;70.22;98479.16;6078015;29;20236;-43
2023/05/04 06:06:47;;;;;;;10.97;5.63;;;;;;;8.48;69.53;98478.34;6075810;29;20287;-45
2023/05/04 06:09:49;;;;;;;6.23;5.20;;;;;;;8.40;69.87;98475.09;6072470;29;20612;-45
2023/05/04 06:12:51;;;;;;;8.60;5.57;;;;;;;8.28;72.39;98482.88;6077919;29;20263;-44
2023/05/04 06:15:53;;;;;;;9.10;5.80;;;;;;;8.65;69.03;98469.91;6076262;29;20395;-45
2023/05/04 06:18:55;;;;;;;11.03;6.43;;;;;;;8.96;66.75;98477.94;6076568;29;20331;-45
2023/05/04 06:21:57;;;;;;;7.30;5.27;;;;;;;9.11;67.11;98484.84;6059416;29;20504;-44
2023/05/04 06:24:59;;;;;;;7.97;6.60;;;;;;;9.35;65.73;98484.09;6076020;29;20318;-43
2023/05/04 06:28:06;;;;;;;9.50;6.70;;;;;;;9.36;65.71;98482.25;6077568;29;20241;-44
2023/05/04 06:31:08;;;;;;;7.47;5.50;;;;;;;9.40;66.02;98484.25;6075911;29;20281;-44
2023/05/04 06:34:10;;;;;;;7.60;5.47;;;;;;;9.35;66.38;98480.63;6077894;29;20270;-44
2023/05/04 06:37:12;;;;;;;8.10;5.93;;;;;;;9.45;66.74;98481.78;6076734;29;20262;-44
2023/05/04 06:40:17;;;;;;;8.13;5.70;;;;;;;9.86;64.82;98485.81;6075417;29;20261;-44
2023/05/04 06:43:19;;;;;;;8.20;5.67;;;;;;;9.87;65.42;98487.41;6078460;29;20229;-45
2023/05/04 06:46:21;;;;;;;7.50;5.57;;;;;;;9.96;63.54;98459.50;6076186;29;20235;-44
2023/05/04 06:49:23;;;;;;;7.13;5.43;;;;;;;10.36;62.72;98488.44;6075929;29;20596;-45
2023/05/04 06:52:28;;;;;;;7.20;5.63;;;;;;;10.40;61.53;98480.84;6075276;29;20236;-44
2023/05/04 06:55:30;;;;;;;7.30;5.90;;;;;;;10.44;63.13;98482.84;6075342;29;20240;-44
2023/05/04 06:58:32;;;;;;;8.23;5.20;;;;;;;10.23;62.93;98451.25;6079172;29;20245;-46
2023/05/04 07:01:34;;;;;;;8.57;5.40;;;;;;;9.95;62.55;98378.03;6075447;29;20241;-46
2023/05/04 07:04:37;;;;;;;10.10;5.73;;;;;;;10.81;59.82;98472.97;6070667;29;20314;-44
2023/05/04 07:07:39;;;;;;;7.43;4.77;;;;;;;10.81;59.68;98474.84;6072501;29;20241;-45
2023/05/04 07:10:41;;;;;;;7.57;5.50;;;;;;;11.03;59.86;98491.16;6073641;29;20619;-44
2023/05/04 07:13:43;;;;;;;6.23;4.97;;;;;;;11.01;57.81;98494.06;6079358;29;20235;-47
2023/05/04 07:16:45;;;;;;;6.27;4.67;;;;;;;10.71;59.48;98453.22;6074961;29;20908;-44
2023/05/04 07:19:53;;;;;;;9.60;4.90;;;;;;;11.01;61.17;98487.91;6074704;29;20244;-44
2023/05/04 07:22:55;;;;;;;7.03;4.53;;;;;;;11.29;59.47;98487.34;6074855;29;20766;-45
2023/05/04 07:25:58;;;;;;;7.10;4.37;;;;;;;11.46;59.31;98499.00;6074445;29;20729;-45
2023/05/04 07:29:00;;;;;;;7.77;4.17;;;;;;;11.62;58.96;98494.84;6075783;29;20259;-44
2023/05/04 07:32:02;;;;;;;5.77;4.63;;;;;;;11.84;57.41;98487.19;6074706;29;20250;-46
2023/05/04 07:35:04;;;;;;;6.60;3.73;;;;;;;12.02;55.10;98495.09;6076663;29;20251;-44
2023/05/04 07:38:07;;;;;;;5.67;3.70;;;;;;;12.08;53.98;98496.84;6073562;29;20676;-44
2023/05/04 07:41:09;;;;;;;4.60;3.57;;;;;;;12.24;54.99;98489.19;6074375;29;20236;-44
2023/05/04 07:44:11;;;;;;;6.13;4.27;;;;;;;12.29;58.04;98495.44;6075600;29;20280;-45
2023/05/04 07:47:13;;;;;;;6.03;4.03;;;;;;;12.17;54.52;98473.28;6075453;29;20228;-44
2023/05/04 07:50:15;;;;;;;3.90;3.50;;;;;;;12.11;52.00;98461.63;6075730;29;20231;-44
2023/05/04 07:53:19;;;;;;;5.03;3.70;;;;;;;12.38;52.51;98482.56;6072823;29;20236;-46
2023/05/04 07:56:21;;;;;;;6.87;3.40;;;;;;;12.39;52.74;98482.31;6074826;29;20750;-48
2023/05/04 07:59:23;;;;;;;4.23;3.83;;;;;;;12.38;53.77;98479.88;6074386;29;20236;-46
2023/05/04 08:02:25;;;;;;;6.10;4.00;;;;;;;12.58;51.61;98476.84;6073917;29;20273;-46
2023/05/04 08:05:27;;;;;;;6.23;3.97;;;;;;;12.56;52.60;98471.75;6079913;29;20228;-45
2023/05/04 08:08:29;;;;;;;7.77;4.30;;;;;;;12.58;52.00;98471.50;6079000;29;20375;-46
2023/05/04 08:11:33;;;;;;;5.93;3.70;;;;;;;12.36;51.06;98448.06;6076369;29;20322;-48
2023/05/04 08:14:37;;;;;;;4.27;3.13;;;;;;;12.81;48.42;98468.78;6075368;29;20529;-46
2023/05/04 08:17:39;;;;;;;4.53;3.10;;;;;;;12.74;47.62;98470.75;6074086;29;20239;-49
2023/05/04 08:20:41;;;;;;;5.57;3.20;;;;;;;12.71;48.30;98476.59;6073296;29;20256;-45
2023/05/04 08:23:43;;;;;;;4.93;3.13;;;;;;;12.65;51.24;98480.19;6073682;29;20314;-46
2023/05/04 08:26:45;;;;;;;5.97;3.87;;;;;;;13.09;48.68;98477.88;6073780;29;20601;-47
2023/05/04 08:30:00;;;;;;;4.23;3.60;;;;;;;13.10;49.14;98480.31;6073387;29;20334;-48
2023/05/04 08:33:02;;;;;;;6.53;3.73;;;;;;;13.14;47.24;98481.44;6073237;29;20764;-50
2023/05/04 08:36:07;;;;;;;6.10;3.40;;;;;;;13.01;48.77;98483.59;6073201;29;20317;-45
2023/05/04 08:39:10;;;;;;;6.47;3.80;;;;;;;13.01;47.81;98471.03;6072894;29;20253;-47
2023/05/04 08:42:12;;;;;;;5.90;3.30;;;;;;;13.03;52.72;98474.28;6074793;29;20230;-46
2023/05/04 08:45:16;;;;;;;5.73;3.47;;;;;;;13.18;47.83;98445.13;6073128;29;20284;-45
2023/05/04 08:48:18;;;;;;;5.60;3.60;;;;;;;13.10;47.36;98485.69;6073694;29;20227;-47
2023/05/04 08:51:21;;;;;;;5.43;3.00;;;;;;;13.21;50.45;98465.28;6072326;29;20223;-46
2023/05/04 08:54:25;;;;;;;5.90;3.10;;;;;;;13.39;47.00;98466.94;6073198;29;20614;-48
2023/05/04 08:57:28;;;;;;;5.27;3.00;;;;;;;13.56;45.24;98462.44;6073291;29;20221;-48
2023/05/04 09:00:31;;;;;;;5.53;3.33;;;;;;;13.47;43.47;98463.09;6051953;29;20720;-47
2023/05/04 09:03:34;;;;;;;3.73;2.67;;;;;;;13.48;46.79;98464.69;6056761;29;20228;-45
2023/05/04 09:06:36;;;;;;;4.13;3.07;;;;;;;13.58;45.17;98465.69;6070532;29;20307;-46
2023/05/04 09:09:38;;;;;;;4.97;3.07;;;;;;;13.89;43.48;98476.91;6071415;29;20379;-45
2023/05/04 09:12:41;;;;;;;6.73;3.63;;;;;;;13.70;47.28;98467.50;6075147;29;20236;-47
2023/05/04 09:15:54;;;;;;;6.03;3.50;;;;;;;13.73;45.09;98456.28;6073530;29;20394;-46
2023/05/04 09:18:56;;;;;;;4.67;3.50;;;;;;;13.93;46.64;98464.63;6072560;29;20236;-47
2023/05/04 09:22:12;;;;;;;6.20;3.50;;;;;;;13.91;43.79;98464.91;6073304;29;20704;-45
2023/05/04 09:25:15;;;;;;;6.13;3.90;;;;;;;14.10;44.19;98462.78;6074535;29;20683;-45
2023/05/04 09:28:18;;;;;;;7.87;3.77;;;;;;;13.92;46.12;98461.16;6082210;29;20244;-44
2023/05/04 09:31:20;;;;;;;5.43;3.57;;;;;;;14.01;49.49;98458.06;6080925;29;20239;-47
2023/05/04 09:34:22;;;;;;;5.73;3.70;;;;;;;14.05;43.88;98451.19;6080238;29;20704;-46
2023/05/04 09:37:24;;;;;;;5.93;3.60;;;;;;;14.02;45.32;98449.78;6079133;29;20337;-47
2023/05/04 09:40:34;;;;;;;5.60;3.63;;;;;;;14.31;45.44;98431.72;6079880;29;20244;-48
2023/05/04 09:43:41;;;;;;;6.47;3.90;;;;;;;14.31;45.90;98445.13;6077033;29;20251;-47
2023/05/04 09:47:04;;;;;;;6.97;4.63;;;;;;;14.13;45.36;98440.84;6080128;29;20236;-48
2023/05/04 09:50:17;;;;;;;6.03;4.30;;;;;;;13.94;45.01;98428.78;6081244;29;20235;-49
2023/05/04 09:53:26;;;;;;;5.03;4.27;;;;;;;13.93;45.31;98411.88;6079648;29;20684;-46
2023/05/04 09:56:28;;;;;;;8.57;5.87;;;;;;;14.30;45.27;98440.00;6082619;29;20240;-46
2023/05/04 09:59:32;;;;;;;5.20;4.70;;;;;;;13.89;45.78;98402.75;6080155;29;20259;-50
2023/05/04 10:02:35;;;;;;;6.77;4.80;;;;;;;14.23;46.77;98425.97;6080056;29;20376;-47
2023/05/04 10:05:38;;;;;;;6.83;5.50;;;;;;;14.56;46.57;98425.09;6080390;29;20330;-47
2023/05/04 10:08:41;;;;;;;6.63;5.13;;;;;;;14.37;47.63;98419.19;6078713;29;20239;-48
2023/05/04 10:11:43;;;;;;;9.47;5.67;;;;;;;14.34;49.18;98419.72;6074033;29;20272;-47
2023/05/04 10:14:45;;;;;;;6.77;4.97;;;;;;;14.22;49.01;98382.28;6078379;29;20776;-48
2023/05/04 10:18:22;;;;;;;6.73;4.40;;;;;;;14.54;47.93;98395.06;6079687;29;20249;-48
2023/05/04 10:21:30;;;;;;;9.43;4.87;;;;;;;14.60;47.54;98402.09;6070100;29;20700;-47
2023/05/04 10:24:56;;;;;;;8.57;4.13;;;;;;;14.75;45.71;98393.41;6080131;29;20255;-47
2023/05/04 10:28:15;;;;;;;5.70;4.57;;;;;;;14.88;47.65;98399.22;6079436;29;20237;-47
2023/05/04 10:31:17;;;;;;;7.80;4.27;;;;;;;14.98;46.05;98389.66;6079940;29;20787;-47
2023/05/04 10:34:31;;;;;;;8.67;3.70;;;;;;;15.06;42.98;98389.19;6079119;29;20240;-48
2023/05/04 10:37:36;;;;;;;4.67;2.80;;;;;;;15.22;44.06;98389.09;6076715;29;20320;-49
2023/05/04 10:40:39;;;;;;;4.73;3.00;;;;;;;15.49;40.32;98401.66;6076010;29;20240;-48
2023/05/04 10:43:47;;;;;;;3.67;2.50;;;;;;;15.20;36.58;98385.03;6075760;29;20239;-48
2023/05/04 10:47:25;;;;;;;5.63;2.60;;;;;;;15.16;37.64;98387.41;6075536;29;20232;-49
2023/05/04 10:50:27;;;;;;;4.67;3.07;;;;;;;15.02;37.63;98388.88;6072340;29;20706;-45
2023/05/04 10:53:31;;;;;;;4.07;3.30;;;;;;;15.06;38.40;98386.50;6075907;29;20259;-45
2023/05/04 10:56:34;;;;;;;3.67;2.43;;;;;;;15.19;37.41;98383.41;6074920;29;20264;-44
2023/05/04 10:59:37;;;;;;;5.33;2.63;;;;;;;15.35;36.84;98376.31;6065883;29;20630;-45
2023/05/04 11:02:39;;;;;;;3.83;2.40;;;;;;;15.39;40.07;98377.41;6075935;29;20770;-45
2023/05/04 11:05:49;;;;;;;6.37;2.60;;;;;;;15.69;37.50;98380.38;6076059;29;20251;-46
2023/05/04 11:09:00;;;;;;;4.73;2.40;;;;;;;15.60;39.45;98355.03;6075365;29;20599;-46
2023/05/04 11:12:02;;;;;;;5.60;2.80;;;;;;;16.07;38.21;98367.72;6058548;29;20237;-45
2023/05/04 11:15:06;;;;;;;4.83;3.43;;;;;;;15.81;37.85;98368.63;6076981;29;20705;-45
2023/05/04 11:18:08;;;;;;;4.43;3.30;;;;;;;15.90;37.40;98367.06;6075055;29;20308;-46
2023/05/04 11:21:11;;;;;;;4.33;2.70;;;;;;;15.96;38.46;98340.00;6076756;29;20323;-45
2023/05/04 11:24:13;;;;;;;4.53;2.40;;;;;;;16.38;38.12;98346.38;6075844;29;20299;-46
2023/05/04 11:27:27;;;;;;;4.97;3.27;;;;;;;16.49;37.54;98348.81;6075187;29;20316;-45
2023/05/04 11:30:34;;;;;;;5.57;3.00;;;;;;;16.34;37.16;98345.25;6075625;29;20232;-46
2023/05/04 11:33:36;;;;;;;5.13;2.90;;;;;;;16.32;37.98;98342.84;6077072;29;20232;-46
2023/05/04 11:36:38;;;;;;;5.67;2.77;;;;;;;16.37;37.29;98329.44;6078428;29;20263;-45
2023/05/04 11:39:40;;;;;;;5.93;2.63;;;;;;;16.49;35.78;98338.06;6075166;29;20232;-47
2023/05/04 11:42:43;;;;;;;3.83;2.93;;;;;;;16.46;35.27;98338.59;6073527;29;20245;-46
2023/05/04 11:45:47;;;;;;;3.60;2.70;;;;;;;16.41;35.77;98330.53;6073970;29;20236;-46
2023/05/04 11:48:49;;;;;;;3.70;3.03;;;;;;;16.47;35.25;98334.84;6070889;29;21816;-45
2023/05/04 11:51:51;;;;;;;4.90;3.37;;;;;;;16.31;35.91;98337.75;6077405;29;20331;-45
2023/05/04 11:54:57;;;;;;;6.50;2.90;;;;;;;16.20;36.13;98326.91;6063056;29;20255;-49
2023/05/04 11:58:10;;;;;;;5.67;2.73;;;;;;;16.46;38.91;98330.53;6053531;29;20252;-46
2023/05/04 12:01:12;;;;;;;4.83;3.33;;;;;;;16.46;39.04;98325.16;6070383;29;20319;-46
2023/05/04 12:04:14;;;;;;;6.43;3.70;;;;;;;16.34;39.16;98329.13;6073558;29;20235;-45
2023/05/04 12:07:16;;;;;;;4.30;3.80;;;;;;;16.07;39.61;98300.53;6072631;29;20232;-45
2023/05/04 12:10:37;;;;;;;5.83;3.73;;;;;;;16.17;38.53;98322.09;6072130;29;20244;-45
2023/05/04 12:13:40;;;;;;;5.40;2.90;;;;;;;16.09;41.35;98309.13;6075493;29;20311;-47
2023/05/04 12:16:52;;;;;;;5.97;3.17;;;;;;;16.27;38.78;98307.06;6073258;29;20720;-45
2023/05/04 12:19:56;;;;;;;4.53;3.00;;;;;;;16.40;38.04;98315.47;6073026;29;20620;-48
2023/05/04 12:23:05;;;;;;;3.07;2.70;;;;;;;16.38;37.15;98308.72;6074252;29;20240;-49
2023/05/04 12:26:08;;;;;;;3.13;2.83;;;;;;;16.62;36.21;98312.56;6073886;29;20245;-46
2023/05/04 12:29:10;;;;;;;3.40;3.10;;;;;;;16.49;36.31;98319.22;6073771;29;20305;-45
2023/05/04 12:32:12;;;;;;;5.27;2.90;;;;;;;16.36;36.37;98309.00;6075926;29;20246;-45
2023/05/04 12:35:14;;;;;;;5.83;3.00;;;;;;;16.17;35.67;98289.81;6072462;29;20232;-45
2023/05/04 12:38:16;;;;;;;5.03;3.20;;;;;;;16.63;36.40;98311.47;6072983;29;20267;-46
2023/05/04 12:41:18;;;;;;;4.50;3.43;;;;;;;16.51;36.71;98302.84;6076017;29;20326;-47
2023/05/04 12:44:21;;;;;;;4.63;2.73;;;;;;;16.47;36.68;98296.38;6070134;29;20300;-46
2023/05/04 12:47:23;;;;;;;5.60;3.50;;;;;;;16.40;37.35;98285.03;6075229;29;20641;-45
2023/05/04 12:50:25;;;;;;;6.83;3.07;;;;;;;16.62;38.43;98288.34;6076865;29;20335;-45
2023/05/04 12:53:28;;;;;;;4.47;3.60;;;;;;;16.65;36.59;98287.81;6073424;29;20239;-44
2023/05/04 12:56:32;;;;;;;5.70;3.50;;;;;;;16.66;37.21;98284.06;6062018;29;20240;-46
2023/05/04 12:59:34;;;;;;;3.47;2.90;;;;;;;16.51;37.46;98282.13;6061108;29;20247;-45
2023/05/04 13:02:36;;;;;;;4.10;3.17;;;;;;;16.37;38.50;98278.34;6065007;29;20883;-45
2023/05/04 13:05:38;;;;;;;4.03;3.10;;;;;;;16.39;37.32;98261.94;6073767;29;20231;-46
2023/05/04 13:08:41;;;;;;;3.73;3.30;;;;;;;16.35;37.13;98242.81;6055353;29;20302;-49
2023/05/04 13:11:44;;;;;;;3.33;2.53;;;;;;;16.61;38.30;98273.28;6074389;29;20717;-46
2023/05/04 13:14:46;;;;;;;4.20;3.13;;;;;;;16.45;39.44;98240.19;6074683;29;20771;-45
2023/05/04 13:17:48;;;;;;;3.87;2.93;;;;;;;16.74;39.82;98256.63;6074061;29;20294;-46
2023/05/04 13:20:52;;;;;;;5.40;2.93;;;;;;;16.86;37.16;98256.41;6074395;29;20242;-46
2023/05/04 13:23:56;;;;;;;4.20;2.57;;;;;;;17.02;36.26;98257.19;6072509;29;20236;-45
2023/05/04 13:26:58;;;;;;;3.20;2.90;;;;;;;16.93;36.62;98254.22;6071892;29;20326;-45
2023/05/04 13:30:02;;;;;;;4.13;3.07;;;;;;;17.00;36.00;98260.19;6073885;29;20244;-46
2023/05/04 13:33:05;;;;;;;3.97;2.67;;;;;;;16.80;37.32;98252.09;6073048;29;20353;-45
2023/05/04 13:36:27;;;;;;;5.60;3.47;;;;;;;16.69;36.75;98242.34;6073382;29;20263;-45
2023/05/04 13:39:29;;;;;;;4.47;2.67;;;;;;;16.66;38.04;98238.31;6069119;29;20368;-50
2023/05/04 13:42:31;;;;;;;3.70;2.70;;;;;;;16.92;37.00;98239.16;6073123;29;20365;-45
2023/05/04 13:45:36;;;;;;;3.87;2.57;;;;;;;16.67;37.42;98202.28;6075295;29;20303;-48
2023/05/04 13:48:38;;;;;;;4.83;3.13;;;;;;;16.88;36.77;98223.81;6076796;29;20268;-46
2023/05/04 13:51:40;;;;;;;4.50;2.43;;;;;;;17.05;38.15;98227.06;6073097;29;20228;-45
2023/05/04 13:54:43;;;;;;;3.40;2.37;;;;;;;16.96;37.11;98218.72;6059820;29;20247;-45
2023/05/04 13:57:45;;;;;;;3.90;2.30;;;;;;;16.97;38.75;98220.31;6060922;29;20917;-45
2023/05/04 14:00:47;;;;;;;2.93;2.20;;;;;;;17.21;35.56;98203.63;6071433;29;20232;-46
2023/05/04 14:03:49;;;;;;;5.00;2.47;;;;;;;17.20;35.57;98212.78;6071943;29;20889;-46
2023/05/04 14:06:52;;;;;;;3.93;2.30;;;;;;;17.15;35.19;98204.72;6071199;29;20288;-45
2023/05/04 14:09:55;;;;;;;4.67;2.20;;;;;;;16.59;36.26;98129.34;6071196;29;20249;-45
2023/05/04 14:12:57;;;;;;;2.60;2.13;;;;;;;17.21;37.26;98211.69;6062271;29;20296;-45
2023/05/04 14:15:59;;;;;;;4.70;2.37;;;;;;;17.11;37.00;98211.72;6078005;29;20312;-47
2023/05/04 14:19:02;;;;;;;3.13;2.00;;;;;;;17.03;38.16;98211.16;6077790;29;20236;-49
2023/05/04 14:22:04;;;;;;;3.90;1.77;;;;;;;17.06;37.88;98206.34;6077202;29;20721;-45
2023/05/04 14:25:06;;;;;;;5.40;2.77;;;;;;;17.18;35.00;98204.16;6076916;29;20237;-45